< < Back
Terminal Aerodrome Forecast


Current Version              Previous Versions:   1  2  3  4  5  6  7  8  9  

Terminal Aerodrome Forecast

825
FTUS42 KILM 272300
TAFILM
TAF
KILM 272322Z 2800/2824 VRB04KT P6SM SKC
     FM281400 27006KT P6SM SKC
     FM281900 22008KT P6SM SKC=



Latest METAR

729
SAUS70 KWBC 280900 RRH
MTRILM
METAR KILM 280853Z AUTO 00000KT 10SM CLR 18/17 A2997 RMK AO2 SLP147
T01830172 55001


USA.gov is the U.S. government's official web portal to all federal, state and local government web resources and services.